Time;durP1;ratioP1;P1;durP2;ratioP2;P2;SDS_P1;SDS_P2;PMS_P1;PMS_P2;Temp;Humidity;BMP_temperature;BMP_pressure;BME280_temperature;BME280_humidity;BME280_pressure;Samples;Min_cycle;Max_cycle;Signal;HPM_P1;HPM_P2
2021/09/21 01:42:28;;;;;;;;;11.00;11.00;;;;;12.71;75.31;101041.13;4806478;29;11240;-76
2021/09/21 01:59:05;;;;;;;;;;;;;;;;;;;;;
2021/09/21 02:07:16;;;;;;;;;13.00;13.00;;;;;12.71;75.35;101066.91;4823583;29;10363;-76
2021/09/21 02:18:48;;;;;;;;;13.75;12.75;;;;;12.75;75.48;101033.78;4814456;29;10382;-77
2021/09/21 02:22:38;;;;;;;;;16.25;14.75;;;;;12.82;74.59;101034.06;4787524;29;10505;-77
2021/09/21 02:30:55;;;;;;;;;11.75;11.75;;;;;12.92;74.50;101035.59;4821731;29;10481;-77
2021/09/21 03:54:29;;;;;;;;;13.00;12.00;;;;;13.59;72.59;101049.25;4659584;27;15222967;-77
2021/09/21 03:57:26;;;;;;;;;18.00;18.00;;;;;13.54;72.72;101051.44;5192375;27;8842;-78
2021/09/21 04:01:11;;;;;;;;;;;;;;;;;;;;;
2021/09/21 04:08:35;;;;;;;;;17.00;17.00;;;;;13.38;73.28;101044.88;5120768;27;10267;-77
2021/09/21 04:11:31;;;;;;;;;19.25;19.25;;;;;13.35;73.41;101055.53;5169631;27;10215;-78
2021/09/21 04:14:01;;;;;;;;;22.00;20.50;;;;;13.41;73.32;101053.34;5171998;27;10227;-77
2021/09/21 04:16:30;;;;;;;;;19.75;19.75;;;;;13.37;73.63;101055.19;5172408;27;10457;-78
2021/09/21 04:19:26;;;;;;;;;18.00;18.00;;;;;13.45;72.80;101048.75;5153188;27;11212;-77
2021/09/21 04:22:22;;;;;;;;;18.00;18.00;;;;;13.41;71.96;101047.78;5171482;27;10599;-78
2021/09/21 04:38:41;;;;;;;;;15.00;15.00;;;;;13.48;70.78;101048.03;5039718;28;10483;-78
2021/09/21 04:41:57;;;;;;;;;19.00;19.00;;;;;13.63;70.83;101044.63;5078382;28;10285;-78
2021/09/21 04:44:53;;;;;;;;;20.50;20.50;;;;;13.58;70.24;101049.59;5106460;28;10443;-78
2021/09/21 04:47:20;;;;;;;;;18.50;18.50;;;;;13.65;70.34;101047.09;5139957;27;11518;-78
2021/09/21 04:50:16;;;;;;;;;21.00;21.00;;;;;13.70;70.72;101046.03;5149981;27;10266;-79
2021/09/21 04:53:12;;;;;;;;;22.50;21.25;;;;;13.73;70.41;101039.81;5154140;27;11242;-79
2021/09/21 04:56:07;;;;;;;;;25.50;24.50;;;;;13.76;70.30;101048.25;5161953;27;10630;-79
2021/09/21 04:59:03;;;;;;;;;24.00;23.00;;;;;13.90;70.50;101042.38;5157164;27;10373;-78
2021/09/21 05:01:59;;;;;;;;;25.00;24.75;;;;;13.89;70.86;101033.22;5159919;27;10436;-79
2021/09/21 05:04:31;;;;;;;;;29.75;29.00;;;;;13.95;70.46;101039.34;5151112;27;10547;-79
2021/09/21 05:07:26;;;;;;;;;27.50;26.50;;;;;14.06;69.12;101029.44;5135712;27;11295;-79
2021/09/21 05:10:22;;;;;;;;;27.75;27.00;;;;;14.09;69.00;101036.25;5143876;27;10962;-78
2021/09/21 05:13:17;;;;;;;;;30.25;30.25;;;;;14.21;69.92;101038.25;5144679;27;10658;-78
2021/09/21 05:16:13;;;;;;;;;33.00;33.00;;;;;14.29;69.46;101028.97;5144974;27;10850;-80
2021/09/21 05:19:11;;;;;;;;;32.50;30.75;;;;;14.39;69.58;101036.84;5145003;27;10701;-75
2021/09/21 05:21:58;;;;;;;;;40.00;37.00;;;;;14.42;69.04;101044.53;5145239;27;10685;-76
2021/09/21 05:24:54;;;;;;;;;31.50;30.75;;;;;14.59;67.90;101043.50;5151140;27;10808;-75
2021/09/21 05:27:49;;;;;;;;;32.00;32.00;;;;;14.71;68.72;101035.91;5123541;27;10540;-75
2021/09/21 05:30:45;;;;;;;;;32.50;30.50;;;;;14.71;67.77;101027.56;5142247;27;10558;-75
2021/09/21 05:33:41;;;;;;;;;35.25;34.00;;;;;14.76;68.33;101020.16;5156425;27;10480;-76
2021/09/21 05:36:36;;;;;;;;;31.75;30.75;;;;;14.86;68.33;101033.56;5154153;27;10347;-75
2021/09/21 05:39:32;;;;;;;;;30.25;30.25;;;;;14.78;67.67;101031.72;5143084;27;12107;-76
2021/09/21 05:42:27;;;;;;;;;25.50;25.50;;;;;15.02;66.45;101023.31;5135439;27;10523;-74
2021/09/21 05:45:23;;;;;;;;;22.50;22.50;;;;;15.26;66.33;101022.44;5135001;27;10231;-76
2021/09/21 05:47:51;;;;;;;;;26.25;24.50;;;;;15.16;64.81;101032.09;5148665;27;10093;-75
2021/09/21 05:50:46;;;;;;;;;21.25;21.25;;;;;14.83;66.06;101031.50;5135779;27;10078;-75
2021/09/21 05:53:27;;;;;;;;;21.00;21.00;;;;;14.83;66.11;101032.31;5123912;27;10766;-75
2021/09/21 05:56:24;;;;;;;;;21.00;20.25;;;;;15.09;66.21;101033.84;5121338;27;9917;-75
2021/09/21 05:59:19;;;;;;;;;19.50;18.00;;;;;14.85;67.15;101023.59;5121720;27;10046;-75
2021/09/21 06:01:51;;;;;;;;;20.00;20.00;;;;;14.88;66.62;101025.69;5130387;27;9782;-75
2021/09/21 06:04:47;;;;;;;;;20.00;19.00;;;;;14.76;67.77;101018.16;5115460;27;9759;-74
2021/09/21 06:07:48;;;;;;;;;17.75;17.75;;;;;15.00;67.63;101026.47;5132791;27;9834;-74
2021/09/21 06:10:43;;;;;;;;;14.00;14.00;;;;;15.01;67.46;101018.91;5132225;27;10805;-75
2021/09/21 06:13:40;;;;;;;;;20.25;20.00;;;;;15.21;67.04;101020.72;5125525;27;9836;-75
2021/09/21 06:16:36;;;;;;;;;12.75;12.75;;;;;15.02;66.74;101010.19;5099337;28;9847;-75
2021/09/21 06:19:32;;;;;;;;;12.00;12.00;;;;;14.82;67.19;101015.97;5133589;27;9618;-77
2021/09/21 06:21:59;;;;;;;;;11.50;9.75;;;;;14.82;67.17;101027.91;5135372;27;9688;-77
2021/09/21 06:24:27;;;;;;;;;10.25;10.25;;;;;14.49;67.46;101025.28;5117411;27;9579;-76
2021/09/21 06:26:55;;;;;;;;;12.50;12.50;;;;;14.39;68.25;101029.31;5117446;27;10377;-77
2021/09/21 06:29:23;;;;;;;;;17.25;17.25;;;;;14.49;68.32;101027.25;5135342;27;9758;-76
2021/09/21 06:31:52;;;;;;;;;20.50;19.50;;;;;14.62;67.67;101024.09;5117615;27;9939;-77
2021/09/21 06:34:20;;;;;;;;;22.00;21.75;;;;;14.67;67.67;101023.06;5135431;27;10079;-77
2021/09/21 06:36:47;;;;;;;;;28.25;24.50;;;;;14.78;67.53;101026.16;5135034;27;9936;-77
2021/09/21 06:39:15;;;;;;;;;25.00;24.00;;;;;14.99;67.66;101022.06;5135250;27;10226;-76
2021/09/21 06:41:43;;;;;;;;;23.50;22.00;;;;;15.11;67.40;101028.75;5100233;27;10249;-77
2021/09/21 06:44:11;;;;;;;;;24.00;23.00;;;;;15.18;67.30;101029.78;5134966;27;10098;-77
2021/09/21 06:46:39;;;;;;;;;24.75;24.00;;;;;15.46;66.99;101023.38;5134840;27;9842;-77
2021/09/21 06:49:07;;;;;;;;;24.75;24.50;;;;;15.51;66.66;101037.06;5134854;27;10009;-77
2021/09/21 06:51:36;;;;;;;;;19.25;19.25;;;;;15.72;65.87;101034.91;5125258;27;9849;-77
2021/09/21 06:54:32;;;;;;;;;18.50;18.50;;;;;15.83;64.94;101033.19;5131574;27;9649;-76
2021/09/21 06:57:28;;;;;;;;;20.50;19.50;;;;;16.01;64.38;101027.25;5133879;27;9625;-77
2021/09/21 07:00:24;;;;;;;;;21.75;21.75;;;;;16.09;64.26;101031.84;5133357;27;9699;-77
2021/09/21 07:03:26;;;;;;;;;16.67;16.67;;;;;16.22;61.96;101018.63;5126734;27;9530;-76
2021/09/21 07:05:57;;;;;;;;;16.00;16.00;;;;;16.27;61.78;101026.72;5134768;27;9292;-78
2021/09/21 07:08:53;;;;;;;;;14.67;14.67;;;;;16.22;61.94;101035.38;5133346;27;9300;-78
2021/09/21 07:11:55;;;;;;;;;12.33;12.33;;;;;16.81;63.98;101026.84;5099175;27;9405;-75
2021/09/21 07:14:50;;;;;;;;;9.00;9.00;;;;;17.56;59.50;101019.16;5134132;27;9235;-76
2021/09/21 07:17:52;;;;;;;;;12.33;12.33;;;;;18.18;57.95;101022.72;5125842;27;9892;-77
2021/09/21 07:21:14;;;;;;;;;12.25;12.25;;;;;18.42;58.26;101015.91;5112739;28;8993;-76
2021/09/21 07:24:14;;;;;;;;;13.75;13.75;;;;;18.54;57.84;101033.28;5104140;28;8901;-76
2021/09/21 07:27:20;;;;;;;;;14.50;14.50;;;;;18.60;57.87;101022.59;5112286;28;8829;-77
2021/09/21 07:34:31;;;;;;;;;12.25;12.25;;;;;18.12;56.59;101039.03;5115806;27;8890;-76
2021/09/21 07:42:11;;;;;;;;;14.50;14.50;;;;;18.55;58.51;101036.91;5028446;28;8867;-78
2021/09/21 07:45:17;;;;;;;;;12.25;12.25;;;;;18.53;57.79;101034.50;5070929;27;9624;-79
2021/09/21 07:48:20;;;;;;;;;14.25;14.25;;;;;18.32;55.79;101048.13;5133237;27;8823;-79
2021/09/21 07:55:38;;;;;;;;;12.00;12.00;;;;;18.32;57.60;101042.53;5101397;28;8883;-76
2021/09/21 07:58:40;;;;;;;;;10.00;10.00;;;;;18.20;54.32;101039.97;5112563;28;8977;-77
2021/09/21 08:01:59;;;;;;;;;11.50;10.50;;;;;18.21;57.71;101030.38;5117948;28;8810;-76
2021/09/21 08:04:55;;;;;;;;;5.25;5.25;;;;;17.96;57.15;101033.56;5118541;27;8808;-77
2021/09/21 08:07:25;;;;;;;;;9.50;8.75;;;;;17.86;56.41;101033.34;5134264;27;8924;-76
2021/09/21 08:09:53;;;;;;;;;8.25;8.00;;;;;18.05;55.13;101030.50;5133176;27;8851;-76
2021/09/21 08:12:30;;;;;;;;;9.25;7.50;;;;;18.55;57.93;101020.91;5124695;28;8826;-76
2021/09/21 08:15:03;;;;;;;;;7.75;7.75;;;;;18.66;55.56;101023.09;5112950;28;8854;-76
2021/09/21 08:17:31;;;;;;;;;7.00;7.00;;;;;19.09;51.13;101022.53;5127368;27;8833;-75
2021/09/21 08:20:19;;;;;;;;;7.25;7.25;;;;;19.70;51.36;101018.41;5133475;27;8877;-76
2021/09/21 08:23:15;;;;;;;;;7.50;7.50;;;;;19.97;52.22;101021.09;5133277;27;8846;-75
2021/09/21 08:25:53;;;;;;;;;6.00;6.00;;;;;20.12;48.31;101020.03;5133755;27;8912;-75
2021/09/21 08:28:35;;;;;;;;;5.75;5.75;;;;;19.85;50.52;101029.78;5129994;27;8831;-75
2021/09/21 08:31:12;;;;;;;;;7.75;7.75;;;;;19.64;50.51;101027.59;5113268;28;8834;-75
2021/09/21 08:33:41;;;;;;;;;8.50;8.50;;;;;19.66;50.08;101028.81;5113170;28;8855;-75
2021/09/21 08:36:36;;;;;;;;;6.00;6.00;;;;;19.66;49.19;101033.63;5111952;28;8821;-76
2021/09/21 08:39:33;;;;;;;;;3.75;3.75;;;;;19.27;48.19;101033.13;5099534;28;9656;-76
2021/09/21 08:42:28;;;;;;;;;6.50;6.50;;;;;18.98;50.76;101032.75;5116162;28;8972;-75
2021/09/21 08:45:25;;;;;;;;;5.50;5.50;;;;;19.21;52.84;101037.47;5115715;28;8849;-75
2021/09/21 08:48:21;;;;;;;;;5.50;5.50;;;;;19.41;51.82;101048.16;5114953;28;9728;-75
2021/09/21 08:51:11;;;;;;;;;7.25;7.25;;;;;19.34;49.90;101036.84;5115183;28;9005;-75
2021/09/21 08:54:07;;;;;;;;;8.00;8.00;;;;;19.30;50.54;101038.78;5129596;27;8820;-71
2021/09/21 08:57:03;;;;;;;;;6.50;6.50;;;;;19.15;53.79;101026.56;5136132;27;9569;-71
2021/09/21 09:00:03;;;;;;;;;8.75;8.75;;;;;20.02;49.58;101026.38;5136212;27;8844;-73
2021/09/21 09:03:08;;;;;;;;;9.00;9.00;;;;;20.45;49.70;101021.13;5136079;27;8847;-72
2021/09/21 09:06:06;;;;;;;;;6.25;6.25;;;;;20.54;45.69;101030.00;5148846;27;9461;-71
2021/09/21 09:09:09;;;;;;;;;6.25;6.25;;;;;20.00;43.72;101023.13;5156228;27;8821;-72
2021/09/21 09:12:06;;;;;;;;;5.25;5.25;;;;;18.88;44.52;101013.81;5142701;27;8860;-73
2021/09/21 09:15:18;;;;;;;;;6.50;6.50;;;;;19.19;46.35;101017.41;5142210;27;8833;-74
2021/09/21 09:18:24;;;;;;;;;2.75;2.75;;;;;19.07;46.58;101018.47;5134169;27;8823;-74
2021/09/21 09:21:19;;;;;;;;;3.00;3.00;;;;;19.21;45.85;101026.25;5135893;27;9577;-73
2021/09/21 09:24:15;;;;;;;;;6.00;6.00;;;;;19.10;46.06;101018.53;5123867;27;8831;-74
2021/09/21 09:26:57;;;;;;;;;4.00;4.00;;;;;19.90;44.60;101016.22;5136385;27;8854;-73
2021/09/21 09:29:57;;;;;;;;;4.00;4.00;;;;;20.09;43.88;101022.78;5155885;27;8823;-72
2021/09/21 09:33:00;;;;;;;;;3.25;3.25;;;;;19.55;42.81;101019.47;5149868;27;8819;-72
2021/09/21 09:35:56;;;;;;;;;4.00;4.00;;;;;19.28;42.44;101012.31;5124950;27;8827;-73
2021/09/21 09:38:24;;;;;;;;;3.25;3.25;;;;;19.17;42.70;101017.81;5151315;27;8843;-70
2021/09/21 09:40:56;;;;;;;;;1.25;1.25;;;;;18.96;43.49;101018.34;5154754;27;8825;-71
2021/09/21 09:43:27;;;;;;;;;2.00;2.00;;;;;18.84;44.42;101015.75;5138650;27;8844;-72
2021/09/21 09:45:57;;;;;;;;;12.00;8.75;;;;;18.81;44.35;101024.94;5156594;27;8844;-72
2021/09/21 09:48:26;;;;;;;;;3.00;3.00;;;;;18.73;45.52;101031.63;5156999;27;8890;-73
2021/09/21 09:50:56;;;;;;;;;3.25;3.25;;;;;18.79;45.89;101036.53;5138339;27;8841;-72
2021/09/21 09:53:25;;;;;;;;;2.25;2.25;;;;;18.71;45.17;101034.81;5138380;27;8829;-72
2021/09/21 09:55:58;;;;;;;;;1.50;1.50;;;;;18.99;44.38;101039.19;5156827;27;8866;-73
2021/09/21 09:58:26;;;;;;;;;1.75;1.75;;;;;19.07;44.69;101033.28;5156973;27;8835;-72
2021/09/21 10:00:56;;;;;;;;;2.75;2.75;;;;;18.93;45.68;101040.69;5156499;27;8817;-72
2021/09/21 10:03:26;;;;;;;;;2.50;2.50;;;;;18.83;45.77;101033.75;5155352;27;8837;-72
2021/09/21 10:05:54;;;;;;;;;2.25;2.25;;;;;18.71;46.30;101045.19;5156499;27;8837;-72
2021/09/21 10:08:22;;;;;;;;;4.00;3.00;;;;;18.84;45.60;101049.38;5155141;27;8840;-72
2021/09/21 10:11:10;;;;;;;;;2.00;2.00;;;;;18.78;45.75;101046.09;5156382;27;8829;-72
2021/09/21 10:13:42;;;;;;;;;3.25;3.25;;;;;18.68;46.41;101046.75;5156640;27;8852;-72
2021/09/21 10:16:31;;;;;;;;;5.00;4.75;;;;;18.46;46.56;101041.97;5156599;27;8837;-72
2021/09/21 10:19:01;;;;;;;;;2.00;2.00;;;;;18.45;47.05;101048.75;5138195;27;8829;-71
2021/09/21 10:21:39;;;;;;;;;4.00;4.00;;;;;18.30;47.89;101042.94;5156432;27;8824;-71
2021/09/21 10:24:07;;;;;;;;;1.00;1.00;;;;;18.12;47.04;101046.63;5156492;27;8838;-71
2021/09/21 10:26:41;;;;;;;;;5.00;4.00;;;;;18.24;48.45;101052.81;5156129;27;8809;-72
2021/09/21 10:29:09;;;;;;;;;6.75;6.75;;;;;18.20;48.15;101053.97;5137830;27;8860;-72
2021/09/21 10:31:40;;;;;;;;;1.00;1.00;;;;;18.04;47.73;101059.69;5155988;27;8852;-72
2021/09/21 10:34:12;;;;;;;;;3.00;1.00;;;;;17.98;48.81;101067.56;5137574;27;8852;-73
2021/09/21 10:36:50;;;;;;;;;6.50;6.50;;;;;18.18;47.93;101065.53;5156210;27;8821;-72
2021/09/21 10:39:20;;;;;;;;;4.00;2.25;;;;;18.33;47.67;101060.97;5138052;27;8817;-73
2021/09/21 10:42:02;;;;;;;;;1.00;1.00;;;;;18.32;47.09;101060.16;5156140;27;8936;-72
2021/09/21 10:44:31;;;;;;;;;1.00;1.00;;;;;18.37;45.93;101061.03;5155463;27;8817;-73
2021/09/21 10:47:09;;;;;;;;;0.75;0.75;;;;;18.50;45.66;101063.25;5155867;27;8913;-72
2021/09/21 10:50:09;;;;;;;;;1.75;1.75;;;;;18.45;45.55;101060.75;5155714;27;8821;-72
2021/09/21 10:52:37;;;;;;;;;1.00;1.00;;;;;18.51;45.56;101061.25;5155841;27;9062;-72
2021/09/21 10:55:08;;;;;;;;;0.75;0.75;;;;;18.97;44.78;101059.19;5154507;27;8845;-72
2021/09/21 10:57:43;;;;;;;;;1.00;1.00;;;;;19.06;44.36;101068.09;5155782;27;8874;-72
2021/09/21 11:00:14;;;;;;;;;5.25;5.00;;;;;19.06;44.60;101058.91;5155860;27;8837;-72
2021/09/21 11:02:52;;;;;;;;;0.00;0.00;;;;;19.16;45.00;101056.22;5154915;27;8837;-72
2021/09/21 11:05:26;;;;;;;;;1.00;1.00;;;;;19.11;46.06;101061.38;5155203;27;8837;-71
2021/09/21 11:08:04;;;;;;;;;0.25;0.25;;;;;19.17;45.55;101055.06;5137198;27;8844;-72
2021/09/21 11:10:54;;;;;;;;;0.00;0.00;;;;;19.24;46.64;101056.31;5139921;27;8845;-72
2021/09/21 11:13:43;;;;;;;;;1.25;1.25;;;;;19.32;46.38;101056.06;5154960;27;8872;-72
2021/09/21 11:16:16;;;;;;;;;0.00;0.00;;;;;19.34;45.74;101062.06;5150141;27;8807;-70
2021/09/21 11:18:54;;;;;;;;;1.50;1.50;;;;;19.21;45.17;101060.69;5143705;27;8942;-70
2021/09/21 11:21:26;;;;;;;;;0.00;0.00;;;;;18.83;45.51;101056.97;5149039;27;8840;-71
2021/09/21 11:24:22;;;;;;;;;1.00;1.00;;;;;19.12;46.08;101058.19;5153750;27;8825;-72
2021/09/21 11:27:18;;;;;;;;;0.00;0.00;;;;;19.07;46.16;101060.50;5153640;27;8817;-71
2021/09/21 11:30:17;;;;;;;;;1.75;1.75;;;;;18.77;46.13;101060.47;5153042;27;8817;-71
2021/09/21 11:33:13;;;;;;;;;1.00;1.00;;;;;19.12;46.16;101063.78;5134116;27;8902;-71
2021/09/21 11:36:11;;;;;;;;;1.00;1.00;;;;;19.24;46.60;101061.94;5143704;27;8851;-72
2021/09/21 11:39:07;;;;;;;;;0.75;0.75;;;;;19.09;46.80;101069.34;5133016;27;8899;-71
2021/09/21 11:42:03;;;;;;;;;1.00;1.00;;;;;19.02;47.34;101064.47;5119447;27;8823;-71
2021/09/21 11:45:02;;;;;;;;;2.00;2.00;;;;;18.89;47.19;101063.06;5149917;27;9610;-70
2021/09/21 11:47:57;;;;;;;;;1.50;1.50;;;;;18.67;48.38;101080.75;5149288;27;8852;-71
2021/09/21 11:50:53;;;;;;;;;1.75;1.75;;;;;18.43;49.43;101065.13;5148011;27;8865;-71
2021/09/21 11:53:50;;;;;;;;;2.00;2.00;;;;;18.51;49.25;101075.28;5134683;27;8833;-71
2021/09/21 11:56:46;;;;;;;;;1.00;1.00;;;;;18.43;48.37;101082.75;5153692;27;8813;-71
2021/09/21 11:59:42;;;;;;;;;2.00;2.00;;;;;18.16;48.51;101078.25;5152569;27;8955;-70
2021/09/21 12:02:17;;;;;;;;;1.25;1.00;;;;;18.31;48.34;101078.13;5136858;27;8892;-72
2021/09/21 12:05:14;;;;;;;;;1.00;1.00;;;;;18.48;48.71;101076.84;5132250;27;8851;-71
2021/09/21 12:08:13;;;;;;;;;2.00;1.00;;;;;18.53;48.68;101073.69;5132632;27;8991;-72
2021/09/21 12:11:16;;;;;;;;;1.00;1.00;;;;;18.77;48.83;101071.69;5135928;27;8853;-71
2021/09/21 12:14:16;;;;;;;;;4.00;2.00;;;;;18.66;49.01;101079.13;5154844;27;8833;-71
2021/09/21 12:17:13;;;;;;;;;1.00;1.00;;;;;18.23;50.33;101089.59;5156674;27;8845;-71
2021/09/21 12:19:45;;;;;;;;;0.50;0.50;;;;;18.33;50.85;101098.19;5143642;27;8900;-73
2021/09/21 12:22:50;;;;;;;;;1.00;1.00;;;;;18.10;51.86;101102.16;5146043;27;8825;-71
2021/09/21 12:25:46;;;;;;;;;1.00;1.00;;;;;17.91;52.20;101117.00;5157363;27;9669;-72
2021/09/21 12:28:48;;;;;;;;;2.75;2.75;;;;;17.97;51.93;101115.50;5157357;27;8924;-73
2021/09/21 12:31:43;;;;;;;;;1.75;1.75;;;;;17.51;53.36;101124.56;5146248;27;8849;-72
2021/09/21 12:34:14;;;;;;;;;1.00;1.00;;;;;17.52;54.26;101123.38;5139434;27;8845;-72
2021/09/21 12:37:10;;;;;;;;;1.50;1.50;;;;;17.54;54.11;101127.78;5136385;27;8905;-72
2021/09/21 12:40:10;;;;;;;;;1.75;1.75;;;;;17.59;53.76;101133.91;5141572;27;8894;-71
2021/09/21 12:43:06;;;;;;;;;6.50;3.50;;;;;17.30;53.44;101134.47;5151379;27;8849;-71
2021/09/21 12:46:04;;;;;;;;;2.00;2.00;;;;;17.23;54.31;101137.94;5139030;27;8815;-71
2021/09/21 12:48:44;;;;;;;;;1.00;1.00;;;;;16.87;54.47;101136.31;5142251;27;8825;-73
2021/09/21 12:51:43;;;;;;;;;1.00;1.00;;;;;17.01;54.75;101135.81;5156679;27;8971;-71
2021/09/21 12:54:47;;;;;;;;;1.00;1.00;;;;;16.91;55.58;101138.00;5131886;27;8839;-73
2021/09/21 12:57:53;;;;;;;;;1.00;1.00;;;;;17.04;54.58;101141.50;5136253;27;8831;-72
2021/09/21 13:00:49;;;;;;;;;1.25;1.25;;;;;16.91;54.62;101139.97;5138479;27;8847;-70
2021/09/21 13:03:44;;;;;;;;;5.50;4.75;;;;;17.01;55.11;101133.03;5156174;27;8859;-71
2021/09/21 13:06:42;;;;;;;;;1.25;1.25;;;;;16.98;55.28;101134.56;5152471;27;8813;-72
2021/09/21 13:09:38;;;;;;;;;2.75;2.75;;;;;17.07;55.57;101140.75;5153770;27;8825;-72
2021/09/21 13:12:34;;;;;;;;;2.00;2.00;;;;;17.01;55.89;101133.81;5151327;27;8821;-73
2021/09/21 13:15:02;;;;;;;;;8.00;8.00;;;;;17.10;55.44;101123.28;5157386;27;8825;-72
2021/09/21 13:17:30;;;;;;;;;2.00;2.00;;;;;17.04;55.24;101130.31;5155745;27;8847;-72
2021/09/21 13:20:00;;;;;;;;;22.25;14.25;;;;;17.04;54.94;101135.09;5147980;27;8907;-73
2021/09/21 13:22:56;;;;;;;;;3.00;3.00;;;;;16.91;55.00;101129.63;5149408;27;8914;-72
2021/09/21 13:25:39;;;;;;;;;2.75;2.75;;;;;16.86;54.66;101131.88;5152902;27;8867;-71
2021/09/21 13:28:35;;;;;;;;;2.50;2.50;;;;;16.91;55.20;101138.00;5135220;27;8828;-72
2021/09/21 13:31:23;;;;;;;;;3.75;3.75;;;;;16.83;54.89;101139.00;5136688;27;8920;-72
2021/09/21 13:34:19;;;;;;;;;13.00;10.25;;;;;16.73;55.67;101145.16;5135380;27;8861;-72
2021/09/21 13:36:47;;;;;;;;;5.00;3.25;;;;;16.64;55.97;101145.31;5118458;27;8929;-71
2021/09/21 13:39:43;;;;;;;;;3.00;3.00;;;;;16.55;56.31;101135.47;5139622;27;8857;-71
2021/09/21 13:42:38;;;;;;;;;3.00;3.00;;;;;16.70;54.65;101157.03;5135408;27;8954;-72
2021/09/21 13:45:35;;;;;;;;;2.50;2.50;;;;;16.37;55.04;101141.44;5134362;27;8835;-72
2021/09/21 13:48:30;;;;;;;;;3.25;3.25;;;;;16.42;55.60;101142.34;5138883;27;8827;-72
2021/09/21 13:51:26;;;;;;;;;3.67;3.67;;;;;16.30;57.27;101146.81;5137410;27;8866;-71
2021/09/21 13:54:22;;;;;;;;;4.50;4.50;;;;;16.34;58.93;101144.94;5150917;27;9023;-72
2021/09/21 13:56:50;;;;;;;;;3.50;3.50;;;;;16.22;59.54;101147.81;5153075;27;8881;-72
2021/09/21 13:59:46;;;;;;;;;4.00;4.00;;;;;16.00;62.09;101162.34;5150683;27;9641;-73
2021/09/21 14:02:13;;;;;;;;;4.00;4.00;;;;;15.82;61.28;101164.63;5135872;27;8879;-72
2021/09/21 14:04:41;;;;;;;;;3.25;3.25;;;;;15.77;60.94;101167.66;5135846;27;8943;-72
2021/09/21 14:07:10;;;;;;;;;3.00;3.00;;;;;15.75;60.56;101168.03;5136121;27;8862;-72
2021/09/21 14:09:38;;;;;;;;;2.75;2.75;;;;;15.76;60.60;101169.66;5136165;27;8832;-73
2021/09/21 14:12:21;;;;;;;;;3.00;3.00;;;;;15.64;60.99;101175.28;5135956;27;8947;-72
2021/09/21 14:14:49;;;;;;;;;4.00;4.00;;;;;15.51;61.34;101171.69;5135527;27;8854;-73
2021/09/21 14:17:27;;;;;;;;;1.50;1.50;;;;;15.46;61.45;101185.84;5135892;27;8939;-73
2021/09/21 14:19:57;;;;;;;;;9.67;9.67;;;;;15.41;61.70;101182.50;5117899;27;8853;-72
2021/09/21 14:22:49;;;;;;;;;5.00;4.00;;;;;15.45;60.88;101181.44;5120931;27;9401;-72
2021/09/21 14:25:18;;;;;;;;;3.00;3.00;;;;;15.35;61.44;101186.72;5117502;27;9178;-72
2021/09/21 14:27:46;;;;;;;;;2.50;2.50;;;;;15.27;60.88;101178.13;5135551;27;8984;-72
2021/09/21 14:30:16;;;;;;;;;3.67;3.67;;;;;15.39;61.50;101182.03;5135649;27;8827;-73
2021/09/21 14:32:44;;;;;;;;;3.00;3.00;;;;;15.34;61.10;101188.69;5135643;27;9361;-71
2021/09/21 14:35:30;;;;;;;;;3.00;3.00;;;;;15.34;61.75;101187.88;5135421;27;8999;-71
2021/09/21 14:37:58;;;;;;;;;3.00;3.00;;;;;15.36;61.18;101189.13;5134296;27;9245;-72
2021/09/21 14:40:26;;;;;;;;;3.33;3.33;;;;;15.40;58.43;101192.00;5135168;27;9054;-73
2021/09/21 14:42:54;;;;;;;;;4.00;3.00;;;;;15.43;57.63;101194.13;5117239;27;9070;-73
2021/09/21 14:45:24;;;;;;;;;1.67;1.67;;;;;15.37;57.00;101187.16;5117204;27;9005;-73
2021/09/21 14:47:56;;;;;;;;;2.00;2.00;;;;;15.38;56.57;101197.13;5118010;27;9458;-73
2021/09/21 14:50:44;;;;;;;;;2.00;2.00;;;;;15.34;57.31;101191.47;5120039;27;9087;-73
2021/09/21 14:53:12;;;;;;;;;3.67;3.67;;;;;15.36;57.80;101199.47;5134898;27;9147;-74
2021/09/21 14:55:40;;;;;;;;;2.00;2.00;;;;;15.21;57.65;101201.00;5134689;27;8910;-73
2021/09/21 14:58:08;;;;;;;;;2.00;2.00;;;;;15.15;58.37;101206.00;5135818;27;9015;-73
2021/09/21 15:00:42;;;;;;;;;3.00;3.00;;;;;15.26;58.82;101207.16;5136137;27;9989;-73
2021/09/21 15:03:12;;;;;;;;;4.00;4.00;;;;;15.22;59.78;101202.63;5142771;27;9082;-73
2021/09/21 15:05:41;;;;;;;;;4.33;4.33;;;;;15.29;60.10;101200.88;5133397;27;9335;-73
2021/09/21 15:08:38;;;;;;;;;5.00;5.00;;;;;15.16;61.06;101217.94;5133781;27;8989;-73
2021/09/21 15:11:35;;;;;;;;;6.33;6.33;;;;;15.15;61.45;101208.78;5133486;27;9311;-74
2021/09/21 15:14:31;;;;;;;;;5.33;5.33;;;;;15.00;61.86;101215.03;5132953;27;9397;-74
2021/09/21 15:17:26;;;;;;;;;8.67;7.00;;;;;15.01;62.43;101213.88;5132648;27;9472;-74
2021/09/21 15:20:23;;;;;;;;;6.50;6.50;;;;;15.02;62.49;101216.31;5127529;27;9419;-73
2021/09/21 15:23:18;;;;;;;;;8.75;8.75;;;;;14.90;62.76;101209.94;5112609;27;9441;-73
2021/09/21 15:26:14;;;;;;;;;7.50;7.50;;;;;14.96;62.73;101220.50;5133256;27;9737;-73
2021/09/21 15:28:42;;;;;;;;;8.50;8.50;;;;;14.91;62.02;101226.31;5135562;27;9421;-73
2021/09/21 15:31:37;;;;;;;;;11.00;11.00;;;;;14.89;61.97;101225.03;5115197;27;9621;-74
2021/09/21 15:34:33;;;;;;;;;3.25;2.00;;;;;14.95;61.71;101227.25;5133170;27;9765;-76
2021/09/21 15:37:21;;;;;;;;;11.00;11.00;;;;;14.84;62.51;101222.47;5120084;27;10467;-77
2021/09/21 15:40:19;;;;;;;;;7.00;7.00;;;;;14.88;62.03;101215.06;5120210;27;9599;-76
2021/09/21 15:43:16;;;;;;;;;12.00;11.00;;;;;14.98;62.25;101225.72;5152501;27;9504;-77
2021/09/21 15:46:11;;;;;;;;;7.00;7.00;;;;;14.96;61.51;101219.69;5153854;27;9708;-78
2021/09/21 15:49:07;;;;;;;;;6.00;6.00;;;;;15.00;60.77;101224.22;5151943;27;9515;-77
2021/09/21 15:52:05;;;;;;;;;7.50;7.50;;;;;15.01;60.89;101225.84;5153275;27;9598;-77
2021/09/21 15:55:01;;;;;;;;;6.00;6.00;;;;;14.88;60.31;101234.56;5152999;27;9765;-75
2021/09/21 15:57:56;;;;;;;;;6.00;6.00;;;;;14.89;60.61;101227.81;5153663;27;9681;-75
2021/09/21 16:00:53;;;;;;;;;7.00;7.00;;;;;14.96;60.18;101239.19;5133242;27;9593;-76
2021/09/21 16:03:21;;;;;;;;;6.75;6.75;;;;;15.03;60.38;101242.22;5147741;27;9460;-76
2021/09/21 16:06:17;;;;;;;;;7.00;7.00;;;;;15.00;59.60;101242.91;5139425;27;9512;-76
2021/09/21 16:09:13;;;;;;;;;4.25;4.25;;;;;14.95;59.54;101245.91;5139181;27;9578;-76
2021/09/21 16:11:42;;;;;;;;;6.50;6.00;;;;;14.94;59.40;101249.84;5153596;27;9624;-75
2021/09/21 16:14:38;;;;;;;;;7.00;7.00;;;;;14.86;60.20;101243.22;5148850;27;10238;-75
2021/09/21 16:17:06;;;;;;;;;4.00;4.00;;;;;14.90;60.15;101251.72;5154357;27;9606;-76
2021/09/21 16:19:35;;;;;;;;;4.50;4.50;;;;;14.84;60.14;101253.91;5153102;27;9575;-75
2021/09/21 16:22:42;;;;;;;;;6.00;6.00;;;;;14.86;59.33;101250.78;5134487;27;9511;-75
2021/09/21 16:25:38;;;;;;;;;5.00;5.00;;;;;14.85;59.32;101254.72;5134474;27;9606;-78
2021/09/21 16:28:34;;;;;;;;;5.00;5.00;;;;;14.82;59.63;101255.44;5148288;27;9453;-75
2021/09/21 16:31:30;;;;;;;;;3.00;3.00;;;;;14.63;57.15;101267.09;5119821;27;9288;-76
2021/09/21 16:34:28;;;;;;;;;5.67;2.00;;;;;14.53;55.59;101278.66;5131575;27;9412;-76
2021/09/21 16:37:24;;;;;;;;;2.50;2.50;;;;;14.48;55.39;101273.31;5132588;27;9379;-75
2021/09/21 16:40:22;;;;;;;;;1.75;1.75;;;;;14.37;56.27;101270.94;5132887;27;9550;-74
2021/09/21 16:42:49;;;;;;;;;2.00;2.00;;;;;14.09;57.24;101281.00;5133501;27;9503;-75
2021/09/21 16:45:34;;;;;;;;;1.00;1.00;;;;;14.27;57.10;101274.16;5133911;27;9656;-75
2021/09/21 16:48:30;;;;;;;;;2.00;2.00;;;;;14.17;57.66;101272.59;5141173;27;9606;-76
2021/09/21 16:51:26;;;;;;;;;2.00;2.00;;;;;14.23;57.13;101280.72;5139061;27;9518;-75
2021/09/21 16:54:23;;;;;;;;;1.75;1.75;;;;;14.13;57.62;101280.00;5152875;27;9649;-76
2021/09/21 16:57:19;;;;;;;;;1.00;1.00;;;;;14.05;57.88;101286.44;5138982;27;9713;-76
2021/09/21 17:00:18;;;;;;;;;2.00;2.00;;;;;13.95;57.63;101289.63;5151161;27;9594;-75
2021/09/21 17:03:26;;;;;;;;;2.25;2.25;;;;;13.87;57.87;101284.94;5122347;27;9656;-76
2021/09/21 17:06:26;;;;;;;;;3.50;3.50;;;;;13.86;57.98;101288.88;5126397;27;10460;-75
2021/09/21 17:09:21;;;;;;;;;2.00;2.00;;;;;13.86;58.25;101284.13;5156294;27;10508;-77